Time;durP1;ratioP1;P1;durP2;ratioP2;P2;SDS_P1;SDS_P2;PMS_P1;PMS_P2;Temp;Humidity;BMP_temperature;BMP_pressure;BME280_temperature;BME280_humidity;BME280_pressure;Samples;Min_cycle;Max_cycle;Signal;HPM_P1;HPM_P2
2022/08/31 00:04:40;;;;;;;;;18.33;15.33;;;25.50;100985.72;;;;117394;1190;25423;-64
2022/08/31 00:07:09;;;;;;;;;16.00;16.00;;;25.45;100985.20;;;;117423;1190;25468;-68
2022/08/31 00:09:38;;;;;;;;;22.67;19.00;;;25.36;100983.63;;;;117432;1190;24650;-68
2022/08/31 00:12:07;;;;;;;;;17.00;15.50;;;25.27;100983.33;;;;117478;1190;25347;-70
2022/08/31 00:14:36;;;;;;;;;15.00;13.33;;;25.10;100980.23;;;;117543;1190;25263;-70
2022/08/31 00:17:05;;;;;;;;;16.25;14.00;;;25.11;100978.27;;;;117352;1189;24815;-66
2022/08/31 00:19:33;;;;;;;;;13.00;13.00;;;25.05;100979.70;;;;117291;1189;24682;-65
2022/08/31 00:22:02;;;;;;;;;20.50;18.75;;;25.21;100980.52;;;;117364;1190;25387;-66
2022/08/31 00:24:31;;;;;;;;;23.75;19.25;;;25.23;100980.64;;;;117389;1188;25217;-64
2022/08/31 00:26:59;;;;;;;;;21.50;18.00;;;25.18;100980.58;;;;117415;1189;25781;-65
2022/08/31 00:29:28;;;;;;;;;15.67;14.33;;;25.25;100977.79;;;;117434;1188;25473;-65
2022/08/31 00:31:56;;;;;;;;;20.75;16.50;;;25.17;100979.58;;;;117389;1189;24961;-65
2022/08/31 00:34:26;;;;;;;;;17.67;15.67;;;25.08;100976.15;;;;117492;1190;25127;-67
2022/08/31 00:36:55;;;;;;;;;17.50;14.25;;;24.99;100978.10;;;;117442;1190;24846;-67
2022/08/31 00:39:23;;;;;;;;;19.50;17.25;;;24.94;100974.92;;;;117411;1190;25354;-66
2022/08/31 00:41:52;;;;;;;;;22.00;18.67;;;24.90;100975.02;;;;117401;1189;25089;-65
2022/08/31 00:44:21;;;;;;;;;17.33;16.67;;;24.86;100971.02;;;;117399;1190;25447;-66
2022/08/31 00:46:49;;;;;;;;;18.67;16.33;;;24.72;100970.77;;;;117409;1190;25040;-65
2022/08/31 00:49:26;;;;;;;;;17.33;14.67;;;24.83;100969.88;;;;117430;1190;25564;-65
2022/08/31 00:51:59;;;;;;;;;20.33;16.67;;;24.90;100969.02;;;;117433;1188;24919;-66
2022/08/31 00:54:34;;;;;;;;;15.50;13.50;;;24.66;100968.05;;;;117428;1189;25335;-65
2022/08/31 00:57:03;;;;;;;;;16.25;15.50;;;25.01;100971.95;;;;117448;1190;25298;-66
2022/08/31 00:59:32;;;;;;;;;18.00;17.00;;;24.86;100972.09;;;;117480;1189;25517;-66
2022/08/31 01:02:00;;;;;;;;;20.00;18.67;;;24.81;100971.25;;;;117493;1189;24904;-66
2022/08/31 01:04:29;;;;;;;;;20.00;19.50;;;24.92;100974.95;;;;117490;1189;25478;-67
2022/08/31 01:06:58;;;;;;;;;19.67;18.67;;;24.77;100974.83;;;;117415;1190;25486;-67
2022/08/31 01:09:30;;;;;;;;;17.67;17.67;;;24.62;100977.05;;;;117477;1189;25489;-66
2022/08/31 01:11:58;;;;;;;;;17.00;16.33;;;24.96;100978.70;;;;117417;1188;24754;-67
2022/08/31 01:14:27;;;;;;;;;22.00;20.00;;;25.00;100979.59;;;;117454;1189;26000;-66
2022/08/31 01:16:55;;;;;;;;;16.00;14.00;;;24.94;100983.27;;;;117406;1190;25553;-66
2022/08/31 01:19:37;;;;;;;;;19.67;16.33;;;24.97;100985.52;;;;117418;1189;24880;-66
2022/08/31 01:22:28;;;;;;;;;18.00;16.00;;;25.03;100985.02;;;;117443;1188;25533;-66
2022/08/31 01:24:56;;;;;;;;;19.00;19.00;;;24.74;100987.28;;;;117471;1188;25285;-65
2022/08/31 01:27:28;;;;;;;;;20.33;16.00;;;24.99;100990.80;;;;117532;1189;24806;-65
2022/08/31 01:30:02;;;;;;;;;19.00;16.00;;;25.02;100994.44;;;;117517;1188;25184;-65
2022/08/31 01:32:30;;;;;;;;;21.33;17.33;;;24.92;100993.33;;;;117487;1188;25381;-66
2022/08/31 01:34:58;;;;;;;;;19.75;17.75;;;24.97;100995.82;;;;117481;1188;24753;-66
2022/08/31 01:37:28;;;;;;;;;19.33;18.33;;;24.86;100994.01;;;;117428;1189;24871;-65
2022/08/31 01:39:57;;;;;;;;;18.00;16.33;;;24.70;100997.63;;;;117422;1189;25012;-64
2022/08/31 01:42:25;;;;;;;;;21.75;18.75;;;24.69;100997.02;;;;117431;1190;25185;-66
2022/08/31 01:45:05;;;;;;;;;18.50;16.50;;;24.55;101000.06;;;;117397;1189;24914;-66
2022/08/31 01:47:33;;;;;;;;;19.25;18.50;;;24.42;100995.13;;;;117388;1190;25772;-65
2022/08/31 01:50:02;;;;;;;;;19.50;19.00;;;24.33;100995.14;;;;117352;1189;25540;-66
2022/08/31 01:52:32;;;;;;;;;21.00;17.50;;;24.49;100999.66;;;;117500;1188;25655;-66
2022/08/31 01:55:02;;;;;;;;;20.00;19.00;;;24.49;100999.02;;;;117510;1188;25680;-66
2022/08/31 01:57:31;;;;;;;;;21.00;18.33;;;24.42;101001.58;;;;117452;1190;25048;-67
2022/08/31 02:00:07;;;;;;;;;21.00;18.67;;;24.29;101005.08;;;;117627;1188;24994;-65
2022/08/31 02:02:36;;;;;;;;;21.00;20.50;;;24.49;101007.48;;;;117726;1189;24972;-66
2022/08/31 02:05:05;;;;;;;;;20.50;18.50;;;24.45;101007.77;;;;117871;1187;25436;-68
2022/08/31 02:07:34;;;;;;;;;17.75;15.50;;;24.38;101005.79;;;;117484;1190;25509;-66
2022/08/31 02:10:04;;;;;;;;;20.50;18.00;;;24.46;101010.36;;;;117439;1190;26250;-67
2022/08/31 02:12:33;;;;;;;;;23.00;18.00;;;24.50;101010.88;;;;117409;1189;25593;-67
2022/08/31 02:15:02;;;;;;;;;25.33;23.00;;;24.54;101009.89;;;;117424;1190;25031;-68
2022/08/31 02:17:30;;;;;;;;;21.00;16.00;;;24.39;101009.80;;;;117473;1189;24832;-67
2022/08/31 02:19:59;;;;;;;;;26.00;21.00;;;24.39;101009.30;;;;117475;1190;25124;-67
2022/08/31 02:22:27;;;;;;;;;27.00;26.67;;;24.06;101016.65;;;;117466;1190;25025;-67
2022/08/31 02:24:56;;;;;;;;;27.33;24.67;;;24.05;101022.23;;;;117417;1189;25470;-67
2022/08/31 02:27:25;;;;;;;;;26.67;23.33;;;24.14;101022.20;;;;117396;1189;24831;-66
2022/08/31 02:29:53;;;;;;;;;23.67;22.67;;;24.24;101023.92;;;;117497;1190;25413;-66
2022/08/31 02:32:22;;;;;;;;;32.00;25.67;;;24.30;101024.77;;;;117443;1189;25418;-66
2022/08/31 02:34:51;;;;;;;;;27.00;24.00;;;24.05;101029.09;;;;117472;1189;25168;-66
2022/08/31 02:37:19;;;;;;;;;29.67;23.33;;;24.20;101029.09;;;;117423;1189;25082;-66
2022/08/31 02:39:49;;;;;;;;;32.33;29.00;;;24.24;101030.67;;;;117435;1189;25161;-66
2022/08/31 02:42:17;;;;;;;;;30.33;28.33;;;24.21;101033.70;;;;117390;1190;25018;-65
2022/08/31 02:44:46;;;;;;;;;25.67;25.00;;;24.33;101033.14;;;;117436;1188;25564;-67
2022/08/31 02:47:15;;;;;;;;;32.67;29.33;;;24.38;101034.88;;;;117411;1190;24911;-66
2022/08/31 02:49:43;;;;;;;;;30.00;27.67;;;24.08;101036.58;;;;117439;1190;25364;-66
2022/08/31 02:52:12;;;;;;;;;36.67;31.33;;;23.87;101036.02;;;;117375;1189;24781;-66
2022/08/31 02:54:40;;;;;;;;;40.50;31.00;;;24.15;101035.89;;;;117414;1190;25241;-67
2022/08/31 02:57:09;;;;;;;;;33.33;31.00;;;24.02;101036.36;;;;117398;1190;24922;-65
2022/08/31 02:59:37;;;;;;;;;30.00;30.00;;;23.90;101037.82;;;;117424;1189;25717;-64
2022/08/31 03:02:05;;;;;;;;;33.00;30.00;;;24.21;101038.16;;;;117389;1189;24758;-65
2022/08/31 03:04:34;;;;;;;;;35.67;30.67;;;23.98;101038.37;;;;117441;1189;24862;-66
2022/08/31 03:07:02;;;;;;;;;52.00;41.33;;;24.12;101034.80;;;;117500;1188;24794;-65
2022/08/31 03:09:31;;;;;;;;;36.50;32.50;;;23.82;101034.36;;;;117414;1190;24778;-65
2022/08/31 03:12:00;;;;;;;;;35.00;25.67;;;23.75;101032.27;;;;117544;1188;25347;-66
2022/08/31 03:14:28;;;;;;;;;32.50;27.00;;;24.01;101032.23;;;;117524;1188;24826;-65
2022/08/31 03:16:57;;;;;;;;;27.50;25.00;;;23.92;101031.70;;;;117543;1188;24994;-65
2022/08/31 03:19:25;;;;;;;;;30.33;27.67;;;23.95;101030.46;;;;117512;1188;24908;-65
2022/08/31 03:21:54;;;;;;;;;27.00;24.00;;;23.74;101026.30;;;;117420;1190;24797;-65
2022/08/31 03:24:24;;;;;;;;;30.33;26.67;;;23.86;101027.48;;;;117444;1188;24905;-66
2022/08/31 03:26:54;;;;;;;;;26.50;25.50;;;23.73;101029.77;;;;117412;1191;25047;-65
2022/08/31 03:29:23;;;;;;;;;29.50;29.00;;;23.93;101027.39;;;;117465;1189;25028;-66
2022/08/31 03:31:51;;;;;;;;;32.00;28.50;;;23.92;101029.60;;;;117482;1189;25104;-64
2022/08/31 03:34:20;;;;;;;;;30.00;26.67;;;23.84;101030.34;;;;117483;1189;25086;-66
2022/08/31 03:36:48;;;;;;;;;30.00;24.67;;;23.72;101035.02;;;;117489;1187;25659;-66
2022/08/31 03:39:17;;;;;;;;;33.33;30.00;;;23.99;101034.17;;;;117504;1189;25791;-65
2022/08/31 03:41:45;;;;;;;;;32.33;27.00;;;23.92;101033.75;;;;117514;1189;24919;-65
2022/08/31 03:44:14;;;;;;;;;35.33;30.00;;;23.83;101030.37;;;;117513;1189;26033;-65
2022/08/31 03:46:44;;;;;;;;;29.33;24.67;;;23.93;101030.73;;;;117452;1189;25749;-65
2022/08/31 03:49:13;;;;;;;;;35.00;31.33;;;23.93;101032.34;;;;117411;1190;25343;-66
2022/08/31 03:51:41;;;;;;;;;30.00;28.00;;;23.98;101037.09;;;;117870;1188;25604;-65
2022/08/31 03:54:11;;;;;;;;;32.67;28.00;;;24.13;101033.15;;;;117515;1189;25738;-64
2022/08/31 03:56:40;;;;;;;;;29.00;27.33;;;24.17;101039.64;;;;117486;1188;24975;-65
2022/08/31 03:59:08;;;;;;;;;26.67;24.67;;;24.20;101039.16;;;;117562;1188;25278;-66
2022/08/31 04:01:38;;;;;;;;;28.67;25.00;;;24.32;101042.23;;;;117465;1188;25491;-66
2022/08/31 04:04:06;;;;;;;;;26.50;23.00;;;24.29;101044.10;;;;117442;1190;25568;-65
2022/08/31 04:06:35;;;;;;;;;29.00;24.67;;;24.23;101043.88;;;;117386;1190;25413;-66
2022/08/31 04:09:03;;;;;;;;;37.67;29.33;;;24.32;101039.46;;;;117479;1188;24691;-64
2022/08/31 04:11:32;;;;;;;;;30.67;27.00;;;24.22;101041.88;;;;117501;1190;25087;-66
2022/08/31 04:14:12;;;;;;;;;32.50;27.50;;;24.59;101031.64;;;;117637;1187;25077;-65
2022/08/31 04:16:42;;;;;;;;;21.67;21.67;;;24.56;101033.88;;;;117601;1189;24898;-66
2022/08/31 04:19:14;;;;;;;;;33.50;27.00;;;24.48;101032.95;;;;117548;1188;24780;-68
2022/08/31 04:21:43;;;;;;;;;38.33;32.00;;;24.55;101033.73;;;;117531;1188;24978;-66
2022/08/31 04:24:12;;;;;;;;;33.00;27.50;;;24.35;101038.83;;;;117538;1189;25193;-66
2022/08/31 04:26:41;;;;;;;;;30.50;28.00;;;24.35;101043.91;;;;117499;1189;25625;-66
2022/08/31 04:29:09;;;;;;;;;28.00;25.67;;;24.54;101040.73;;;;117425;1189;25543;-66
2022/08/31 04:31:41;;;;;;;;;27.00;25.00;;;24.71;101040.05;;;;117395;1189;25009;-66
2022/08/31 04:34:09;;;;;;;;;34.67;29.33;;;24.57;101042.55;;;;117461;1189;25484;-68
2022/08/31 04:36:38;;;;;;;;;25.00;22.33;;;24.88;101043.15;;;;117418;1190;25509;-66
2022/08/31 04:39:08;;;;;;;;;33.00;27.50;;;24.91;101044.89;;;;117430;1189;25322;-68
2022/08/31 04:41:38;;;;;;;;;32.67;27.67;;;24.63;101043.59;;;;117373;1191;25424;-67
2022/08/31 04:44:07;;;;;;;;;41.67;34.00;;;24.63;101040.83;;;;117461;1190;25515;-66
2022/08/31 04:46:37;;;;;;;;;38.50;31.50;;;24.78;101041.91;;;;117428;1189;25659;-66
2022/08/31 04:49:08;;;;;;;;;33.67;27.00;;;24.82;101035.33;;;;117490;1190;25366;-66
2022/08/31 04:51:38;;;;;;;;;34.33;29.67;;;24.94;101036.65;;;;117677;1188;25290;-69
2022/08/31 04:54:09;;;;;;;;;33.00;29.00;;;25.10;101035.13;;;;117569;1189;25153;-71
2022/08/31 04:56:40;;;;;;;;;36.00;30.00;;;25.29;101032.69;;;;117451;1190;25171;-69
2022/08/31 04:59:14;;;;;;;;;36.00;28.67;;;25.22;101031.09;;;;117505;1188;25523;-69
2022/08/31 05:01:46;;;;;;;;;35.00;31.67;;;25.48;101030.07;;;;117364;1189;24743;-70
2022/08/31 05:04:15;;;;;;;;;41.00;31.00;;;25.46;101027.36;;;;117512;1188;25572;-67
2022/08/31 05:06:45;;;;;;;;;30.67;26.67;;;25.35;101030.33;;;;117465;1188;25325;-68
2022/08/31 05:09:18;;;;;;;;;42.00;32.00;;;25.36;101024.97;;;;117503;1188;24977;-68
2022/08/31 05:11:49;;;;;;;;;33.00;31.00;;;25.92;101028.13;;;;117433;1189;25676;-67
